Ana Sayfa
METAR-TAF:

METAR-TAF

Havaalanları :

Farmingdale, New York, Amerika Birleşik Devletleri

Enlem: 40-44-03N, Boylam: 073-25-01W, yükseklik: 24 m

Güncel hava durumu gözlemi

Rapor saat 13:53 UTC de 28 dakika önce yapıldı.
Rüzgar güney/güneybatıdan 8 kt
Sıcaklık 17°C
Nem 63%
Basınç 1024 hPa
Görüş mesafesi: 16.1 km
Açık gökyüzü

METAR: KFRG 251353Z 20008KT 10SM CLR 17/10 A3024 RMK AO2 SLP240 T01670100

Saat: 10:21 (14:21 UTC)


TAF: eksik

4.000'den fazla havaalanı için hava durumu gözlemleri ve tahminleri (METAR ve TAF raporları).

Kullanılabilir istasyonlar harita üzerinde sarı ve kırmızı noktalarla gösterilir.

İstasyonun adını görmek için fareyi noktanın üzerinde gezdirin.

Sonrasında hava gözlem ve tahminlerini görmek için tıklayın.

Haritayı değiştirmek için: yaklaştırmak için siyah artı işaretli yeşil düğmeye ve uzaklaştırmak için de eksi işaretli düğmeye hızla tıklayın; bitişik haritalar için yeşil okları kullanın.


METAR-TAF: